• Join FlightAware (Why Join?)
  • Login
  • US Flag 
12:32PM EDT


 

Airport Tracker/Info


-or-


 

Live Flight TrackerFlight Track Log ✈ TYR188 ✈ 29-Aug-2013 ✈ EDDS / STR - LOWW / VIE

Flight Track Log - Related Links

Times and Time Zones

All times are in EDT time to prevent confusion due to time zone crossing. See the TYR188 flight status page for this flight to view local times or setup timezone preferences in your user account.

Time Position Orientation Groundspeed Altitude Reporting Facility
EDT Latitude Longitude Course Direction KTS MPH feet Rate Location/Type
01:26PM 48.6645 9.7430 94° East  Level Estimated
01:27PM 48.6578 9.8731 94° East  Level Estimated
01:28PM 48.6510 10.0033 95° East  Level Estimated
01:29PM 48.6440 10.1334 95° East  Level Estimated
01:30PM 48.6368 10.2634 95° East  Level Estimated
01:31PM 48.6296 10.3934 95° East  Level Estimated
01:32PM 48.6221 10.5234 95° East  Level Estimated
01:33PM 48.6146 10.6534 95° East  Level Estimated
01:34PM 48.6068 10.7833 95° East  Level Estimated
01:35PM 48.5989 10.9132 95° East  Level Estimated
01:36PM 48.5909 11.0430 95° East  Level Estimated
01:37PM 48.5828 11.1728 95° East  Level Estimated
01:38PM 48.5745 11.3025 95° East  Level Estimated
01:39PM 48.5660 11.4322 96° East  Level Estimated
01:40PM 48.5574 11.5619 96° East  Level Estimated
01:41PM 48.5486 11.6915 96° East  Level Estimated
01:42PM 48.5397 11.8211 96° East  Level Estimated
01:43PM 48.5307 11.9506 96° East  Level Estimated
01:44PM 48.5215 12.0801 96° East  Level Estimated
01:45PM 48.5122 12.2095 96° East  Level Estimated
01:46PM 48.5027 12.3389 96° East  Level Estimated
01:47PM 48.4931 12.4682 96° East  Level Estimated
01:48PM 48.4833 12.5975 96° East  Level Estimated
01:49PM 48.4734 12.7267 97° East  Level Estimated
01:50PM 48.4634 12.8559 97° East  Level Estimated
01:51PM 48.4532 12.9850 97° East  Level Estimated
01:52PM 48.4428 13.1141 97° East  Level Estimated
01:53PM 48.4324 13.2431 97° East  Level Estimated
01:54PM 48.4217 13.3721 97° East  Level Estimated
01:55PM 48.4110 13.5010 97° East  Level Estimated
01:56PM 48.4000 13.6299 97° East  Level Estimated
01:57PM 48.3890 13.7587 97° East  Level Estimated
01:58PM 48.3778 13.8874 97° East  Level Estimated
01:59PM 48.3664 14.0161 98° East  Level Estimated
02:00PM 48.3549 14.1447 98° East  Level Estimated
02:01PM 48.3433 14.2733 98° East  Level Estimated
02:02PM 48.3315 14.4018 98° East  Level Estimated
02:03PM 48.3196 14.5303 98° East  Level Estimated
02:04PM 48.3075 14.6587 98° East  Level Estimated
02:05PM 48.2953 14.7871 98° East  Level Estimated
02:06PM 48.2830 14.9153 98° East  Level Estimated
02:07PM 48.2705 15.0435 98° East  Level Estimated
02:08PM 48.2578 15.1717 98° East  Level Estimated
02:09PM 48.2450 15.2998 98° East  Level Estimated
02:10PM 48.2321 15.4278 99° East  Level Estimated
02:11PM 48.2191 15.5557 99° East  Level Estimated
02:12PM 48.2059 15.6836 99° East  Level Estimated
02:13PM 48.1925 15.8115 99° East  Level Estimated
02:14PM 48.1790 15.9392 99° East  Level Estimated
02:15PM 48.1654 16.0669 99° East  Level Estimated
02:16PM 48.1516 16.1945 99° East  Level Estimated
02:17PM 48.1377 16.3221 99° East  Level Estimated
02:18PM 48.1237 16.4496 99° East  Level Estimated
02:19PM 48.1103 16.5697 99° East  Level Estimated
02:20PM 48.1103 16.5697 146° Southeast  Level Estimated
02:21PM 48.1103 16.5697 146° Southeast  Level Estimated
02:22PM 48.1103 16.5697 146° Southeast  Level Estimated
02:23PM 48.1103 16.5697 146° Southeast  Level Estimated